createdAt,value
2023-02-09T00:01:37.422Z,9.10
2023-02-09T00:04:06.007Z,8.40
2023-02-09T00:06:34.182Z,9.00
2023-02-09T00:09:03.705Z,8.70
2023-02-09T00:11:51.522Z,8.30
2023-02-09T00:14:22.097Z,9.30
2023-02-09T00:16:52.315Z,8.00
2023-02-09T00:19:21.988Z,8.60
2023-02-09T00:21:50.576Z,7.60
2023-02-09T00:24:18.743Z,8.00
2023-02-09T00:26:47.736Z,7.60
2023-02-09T00:29:17.855Z,8.90
2023-02-09T00:31:45.934Z,8.60
2023-02-09T00:34:15.530Z,8.90
2023-02-09T00:36:45.744Z,8.10
2023-02-09T00:39:14.135Z,8.80
2023-02-09T00:42:00.849Z,8.00
2023-02-09T00:44:29.341Z,8.30
2023-02-09T00:46:58.144Z,8.20
2023-02-09T00:49:26.288Z,8.00
2023-02-09T00:51:54.564Z,7.80
2023-02-09T00:54:23.351Z,8.20
2023-02-09T00:56:52.110Z,8.60
2023-02-09T00:59:20.364Z,7.20
2023-02-09T01:01:48.702Z,8.40
2023-02-09T01:04:17.006Z,8.40
2023-02-09T01:06:45.247Z,9.50
2023-02-09T01:09:13.322Z,10.40
2023-02-09T01:11:42.565Z,10.80
2023-02-09T01:14:13.237Z,9.60
2023-02-09T01:16:41.481Z,8.50
2023-02-09T01:19:13.292Z,8.40
2023-02-09T01:21:41.870Z,9.30
2023-02-09T01:24:14.596Z,9.10
2023-02-09T01:26:42.824Z,10.30
2023-02-09T01:29:17.247Z,47.60
2023-02-09T01:31:46.620Z,32.90
2023-02-09T01:34:18.209Z,34.50
2023-02-09T01:36:50.380Z,44.20
2023-02-09T01:39:18.579Z,12.10
2023-02-09T01:41:46.888Z,9.20
2023-02-09T01:44:15.032Z,8.40
2023-02-09T01:46:44.365Z,7.50
2023-02-09T01:49:17.589Z,8.50
2023-02-09T01:52:01.275Z,8.20
2023-02-09T01:54:37.996Z,8.60
2023-02-09T01:57:10.379Z,8.90
2023-02-09T01:59:42.404Z,8.20
2023-02-09T02:02:11.615Z,7.90
2023-02-09T02:04:43.710Z,35.70
2023-02-09T02:07:20.694Z,30.50
2023-02-09T02:09:50.606Z,36.20
2023-02-09T02:12:19.289Z,23.90
2023-02-09T02:14:47.467Z,17.40
2023-02-09T02:17:25.058Z,13.50
2023-02-09T02:22:56.017Z,10.20
2023-02-09T02:25:55.321Z,10.30
2023-02-09T02:28:37.524Z,11.00
2023-02-09T02:31:15.447Z,10.90
2023-02-09T02:33:46.749Z,11.50
2023-02-09T02:36:30.411Z,10.40
2023-02-09T02:39:05.753Z,12.40
2023-02-09T02:42:24.514Z,18.40
2023-02-09T02:45:30.279Z,58.10
2023-02-09T02:48:20.053Z,16.70
2023-02-09T02:50:57.465Z,17.20
2023-02-09T02:53:29.992Z,16.00
2023-02-09T02:56:06.399Z,14.80
2023-02-09T02:58:39.087Z,17.60
2023-02-09T03:01:13.397Z,17.20
2023-02-09T03:03:44.045Z,19.00
2023-02-09T03:06:14.146Z,19.40
2023-02-09T03:08:51.683Z,20.10
2023-02-09T03:11:22.300Z,23.80
2023-02-09T03:14:11.537Z,19.00
2023-02-09T03:17:00.602Z,22.80
2023-02-09T03:19:52.020Z,21.80
2023-02-09T03:22:42.941Z,21.20
2023-02-09T03:25:25.746Z,21.90
2023-02-09T03:28:07.062Z,22.30
2023-02-09T03:30:37.168Z,22.00
2023-02-09T03:33:06.224Z,23.10
2023-02-09T03:35:39.332Z,22.20
2023-02-09T03:38:07.616Z,23.80
2023-02-09T03:40:36.295Z,19.60
2023-02-09T03:43:04.429Z,24.70
2023-02-09T03:45:32.644Z,23.20
2023-02-09T03:48:00.920Z,21.80
2023-02-09T03:50:30.537Z,22.00
2023-02-09T03:52:59.827Z,23.80
2023-02-09T03:55:28.307Z,24.20
2023-02-09T03:57:56.566Z,24.70
2023-02-09T04:00:24.881Z,25.20
2023-02-09T04:02:53.080Z,23.30
2023-02-09T04:05:22.876Z,24.40
2023-02-09T04:07:51.253Z,24.90
2023-02-09T04:10:19.503Z,23.50
2023-02-09T04:12:48.392Z,26.00
2023-02-09T04:15:16.670Z,26.50
2023-02-09T04:17:44.742Z,28.30
2023-02-09T04:20:12.813Z,27.90
2023-02-09T04:22:41.398Z,25.00
2023-02-09T04:25:09.774Z,28.10
2023-02-09T04:27:37.951Z,28.90
2023-02-09T04:30:06.743Z,29.40
2023-02-09T04:32:35.015Z,26.80
2023-02-09T04:35:03.505Z,28.90
2023-02-09T04:37:31.785Z,31.80
2023-02-09T04:39:59.953Z,34.60
2023-02-09T04:42:28.227Z,29.80
2023-02-09T04:44:56.607Z,28.90
2023-02-09T04:47:25.192Z,29.60
2023-02-09T04:49:53.569Z,29.50
2023-02-09T04:52:21.949Z,29.30
2023-02-09T04:54:50.331Z,30.90
2023-02-09T04:57:36.935Z,27.70
2023-02-09T05:00:05.940Z,27.00
2023-02-09T05:02:34.211Z,26.10
2023-02-09T05:05:02.801Z,29.00
2023-02-09T05:07:31.067Z,27.50
2023-02-09T05:09:59.143Z,26.80
2023-02-09T05:12:27.426Z,25.60
2023-02-09T05:14:55.897Z,24.80
2023-02-09T05:17:24.072Z,20.70
2023-02-09T05:19:52.582Z,22.60
2023-02-09T05:22:20.932Z,26.80
2023-02-09T05:24:49.311Z,22.10
2023-02-09T05:27:17.795Z,17.80
2023-02-09T05:29:45.868Z,19.30
2023-02-09T05:32:14.191Z,19.30
2023-02-09T05:34:42.626Z,17.60
2023-02-09T05:37:11.110Z,17.90
2023-02-09T05:39:39.488Z,16.20
2023-02-09T05:42:17.090Z,19.10
2023-02-09T05:44:48.606Z,20.70
2023-02-09T05:47:19.739Z,20.00
2023-02-09T05:49:48.711Z,21.30
2023-02-09T05:52:17.559Z,18.50
2023-02-09T05:54:48.497Z,17.50
2023-02-09T05:57:17.903Z,19.70
2023-02-09T05:59:46.075Z,22.00
2023-02-09T06:02:14.277Z,24.70
2023-02-09T06:04:43.343Z,24.20
2023-02-09T06:07:12.112Z,23.80
2023-02-09T06:09:40.436Z,22.60
2023-02-09T06:12:08.890Z,18.80
2023-02-09T06:14:37.169Z,18.30
2023-02-09T06:17:05.644Z,17.60
2023-02-09T06:19:33.820Z,20.40
2023-02-09T06:22:02.508Z,16.30
2023-02-09T06:24:30.583Z,22.50
2023-02-09T06:26:58.956Z,22.00
2023-02-09T06:29:27.649Z,19.40
2023-02-09T06:31:56.153Z,18.30
2023-02-09T06:34:25.734Z,19.40
2023-02-09T06:36:54.018Z,18.20
2023-02-09T06:39:22.596Z,20.10
2023-02-09T06:41:50.669Z,23.20
2023-02-09T06:44:19.990Z,22.30
2023-02-09T06:46:49.065Z,19.40
2023-02-09T06:49:17.244Z,22.60
2023-02-09T06:51:45.618Z,16.60
2023-02-09T06:54:14.103Z,17.40
2023-02-09T06:56:42.172Z,17.00
2023-02-09T06:59:10.493Z,17.20
2023-02-09T07:01:38.964Z,15.70
2023-02-09T07:04:07.414Z,13.50
2023-02-09T07:06:36.126Z,14.40
2023-02-09T07:09:04.989Z,12.70
2023-02-09T07:11:34.395Z,15.30
2023-02-09T07:14:03.488Z,15.20
2023-02-09T07:16:31.662Z,15.30
2023-02-09T07:19:00.582Z,17.30
2023-02-09T07:21:28.835Z,24.10
2023-02-09T07:23:57.101Z,22.30
2023-02-09T07:26:25.589Z,18.50
2023-02-09T07:28:53.663Z,20.60
2023-02-09T07:31:21.838Z,21.80
2023-02-09T07:33:50.316Z,26.30
2023-02-09T07:36:18.397Z,28.10
2023-02-09T07:38:47.118Z,27.10
2023-02-09T07:41:20.741Z,27.00
2023-02-09T07:43:49.044Z,25.40
2023-02-09T07:46:20.047Z,24.40
2023-02-09T07:48:49.539Z,25.80
2023-02-09T07:51:21.048Z,25.70
2023-02-09T07:53:49.124Z,24.70
2023-02-09T07:56:18.015Z,23.20
2023-02-09T07:58:46.186Z,27.60
2023-02-09T08:01:15.088Z,26.70
2023-02-09T08:03:46.845Z,22.90
2023-02-09T08:06:42.832Z,26.50
2023-02-09T08:09:15.072Z,20.70
2023-02-09T08:11:58.935Z,19.30
2023-02-09T08:14:31.120Z,19.50
2023-02-09T08:17:23.485Z,18.00
2023-02-09T08:20:04.512Z,14.80
2023-02-09T08:22:37.654Z,15.30
2023-02-09T08:25:06.657Z,15.40
2023-02-09T08:27:37.291Z,15.90
2023-02-09T08:30:06.618Z,17.90
2023-02-09T08:32:34.955Z,18.30
2023-02-09T08:35:04.058Z,15.00
2023-02-09T08:37:32.946Z,12.90
2023-02-09T08:40:01.225Z,15.90
2023-02-09T08:42:29.602Z,11.00
2023-02-09T08:44:57.672Z,12.00
2023-02-09T08:47:25.746Z,11.60
2023-02-09T08:49:53.817Z,10.30
2023-02-09T08:52:22.104Z,11.20
2023-02-09T08:54:50.490Z,8.50
2023-02-09T08:57:18.853Z,9.90
2023-02-09T08:59:47.130Z,9.80
2023-02-09T09:02:15.515Z,10.10
2023-02-09T09:04:43.994Z,10.70
2023-02-09T09:07:12.371Z,8.20
2023-02-09T09:09:40.545Z,15.30
2023-02-09T09:12:08.924Z,19.10
2023-02-09T09:14:38.033Z,25.30
2023-02-09T09:17:06.401Z,13.00
2023-02-09T09:19:35.086Z,12.90
2023-02-09T09:22:03.882Z,11.00
2023-02-09T09:24:32.869Z,13.00
2023-02-09T09:27:01.461Z,12.60
2023-02-09T09:29:29.636Z,14.40
2023-02-09T09:31:57.814Z,11.90
2023-02-09T09:34:26.521Z,9.20
2023-02-09T09:36:54.772Z,8.20
2023-02-09T09:39:23.145Z,9.80
2023-02-09T09:41:57.673Z,7.70
2023-02-09T09:44:41.311Z,7.80
2023-02-09T09:47:16.238Z,8.20
2023-02-09T09:49:44.922Z,7.60
2023-02-09T09:52:24.829Z,8.70
2023-02-09T09:54:53.354Z,11.80
2023-02-09T09:57:27.696Z,8.40
2023-02-09T09:59:56.983Z,11.00
2023-02-09T10:02:34.609Z,8.90
2023-02-09T10:05:15.216Z,8.00
2023-02-09T10:07:49.962Z,7.40
2023-02-09T10:10:57.388Z,8.40
2023-02-09T10:13:44.694Z,8.80
2023-02-09T10:16:20.263Z,10.00
2023-02-09T10:18:51.589Z,8.90
2023-02-09T10:21:19.954Z,19.30
2023-02-09T10:24:10.455Z,26.70
2023-02-09T10:26:40.803Z,60.20
2023-02-09T10:29:12.134Z,26.10
2023-02-09T10:31:43.414Z,15.10
2023-02-09T10:34:16.671Z,11.60
2023-02-09T10:36:54.687Z,12.20
2023-02-09T10:39:29.402Z,15.80
2023-02-09T10:42:16.320Z,10.30
2023-02-09T10:44:49.856Z,11.00
2023-02-09T10:47:19.009Z,20.70
2023-02-09T10:50:15.237Z,11.50
2023-02-09T10:52:59.720Z,54.20
2023-02-09T10:55:37.909Z,29.30
2023-02-09T10:58:11.334Z,20.90
2023-02-09T11:00:42.444Z,13.50
2023-02-09T11:03:18.195Z,17.20
2023-02-09T11:05:48.010Z,12.50
2023-02-09T11:08:24.651Z,12.50
2023-02-09T11:10:55.838Z,30.70
2023-02-09T11:13:26.675Z,16.50
2023-02-09T11:16:19.812Z,11.20
2023-02-09T11:19:11.352Z,14.00
2023-02-09T11:21:48.536Z,14.00
2023-02-09T11:24:43.523Z,15.90
2023-02-09T11:27:23.427Z,11.50
2023-02-09T11:30:23.349Z,9.90
2023-02-09T11:33:11.245Z,12.20
2023-02-09T11:36:13.722Z,10.00
2023-02-09T11:38:53.060Z,11.00
2023-02-09T11:42:14.994Z,11.70
2023-02-09T11:44:56.585Z,11.50
2023-02-09T11:47:46.170Z,12.90
2023-02-09T11:50:44.573Z,11.40
2023-02-09T11:53:23.363Z,30.60
2023-02-09T11:55:57.898Z,16.00
2023-02-09T11:58:49.109Z,14.30
2023-02-09T12:01:55.062Z,13.50
2023-02-09T12:04:31.886Z,85.50
2023-02-09T12:07:05.338Z,13.50
2023-02-09T12:09:36.891Z,38.90
2023-02-09T12:12:23.807Z,15.50
2023-02-09T12:15:18.200Z,30.80
2023-02-09T12:17:53.214Z,55.30
2023-02-09T12:20:21.510Z,14.10
2023-02-09T12:23:02.815Z,18.00
2023-02-09T12:25:51.417Z,28.60
2023-02-09T12:28:32.774Z,26.10
2023-02-09T12:31:03.197Z,19.30
2023-02-09T12:34:00.712Z,16.00
2023-02-09T12:36:33.371Z,28.00
2023-02-09T12:39:06.192Z,16.00
2023-02-09T12:41:34.479Z,18.10
2023-02-09T12:44:11.941Z,19.10
2023-02-09T12:46:48.615Z,17.70
2023-02-09T12:49:38.805Z,16.10
2023-02-09T12:52:16.504Z,16.90
2023-02-09T12:54:57.687Z,17.30
2023-02-09T12:57:26.371Z,18.00
2023-02-09T12:59:59.762Z,18.10
2023-02-09T13:02:38.588Z,17.80
2023-02-09T13:05:24.894Z,19.80
2023-02-09T13:08:12.010Z,66.10
2023-02-09T13:10:49.107Z,18.00
2023-02-09T13:13:33.152Z,21.30
2023-02-09T13:16:01.527Z,10.60
2023-02-09T13:19:08.201Z,11.10
2023-02-09T13:21:45.594Z,14.00
2023-02-09T13:24:19.849Z,14.40
2023-02-09T13:26:57.407Z,14.00
2023-02-09T13:29:27.966Z,13.30
2023-02-09T13:32:11.372Z,12.40
2023-02-09T13:34:46.811Z,16.00
2023-02-09T13:37:36.496Z,14.90
2023-02-09T13:40:24.841Z,18.60
2023-02-09T13:45:24.280Z,11.60
2023-02-09T13:47:53.351Z,17.70
2023-02-09T13:50:24.299Z,11.00
2023-02-09T13:52:52.566Z,12.80
2023-02-09T13:55:24.501Z,15.30
2023-02-09T13:58:05.371Z,11.50
2023-02-09T14:00:41.578Z,14.50
2023-02-09T14:03:18.240Z,11.90
2023-02-09T14:06:01.899Z,10.60
2023-02-09T14:08:32.710Z,12.80
2023-02-09T14:11:41.989Z,11.40
2023-02-09T14:14:16.806Z,12.40
2023-02-09T14:16:53.444Z,13.30
2023-02-09T14:19:31.204Z,25.70
2023-02-09T14:22:00.411Z,17.00
2023-02-09T14:24:44.291Z,12.40
2023-02-09T14:27:24.098Z,13.90
2023-02-09T14:29:53.640Z,20.50
2023-02-09T14:32:33.340Z,18.00
2023-02-09T14:35:23.676Z,16.50
2023-02-09T14:37:57.767Z,19.10
2023-02-09T14:40:29.868Z,36.20
2023-02-09T14:43:10.325Z,22.60
2023-02-09T14:45:45.863Z,23.40
2023-02-09T14:48:27.255Z,15.30
2023-02-09T14:50:59.536Z,15.10
2023-02-09T14:53:31.323Z,27.00
2023-02-09T14:56:00.182Z,20.20
2023-02-09T14:58:31.606Z,15.80
2023-02-09T15:01:02.896Z,18.50
2023-02-09T15:03:31.160Z,17.10
2023-02-09T15:06:02.609Z,17.60
2023-02-09T15:08:35.478Z,16.90
2023-02-09T15:11:26.087Z,15.70
2023-02-09T15:14:03.915Z,22.20
2023-02-09T15:16:32.878Z,25.30
2023-02-09T15:19:05.458Z,32.90
2023-02-09T15:21:34.041Z,37.70
2023-02-09T15:24:02.730Z,31.10
2023-02-09T15:26:34.750Z,23.50
2023-02-09T15:29:09.898Z,50.00
2023-02-09T15:31:38.165Z,53.40
2023-02-09T15:34:06.888Z,34.40
2023-02-09T15:36:35.212Z,30.90
2023-02-09T15:39:04.627Z,34.00
2023-02-09T15:41:51.480Z,24.50
2023-02-09T15:44:40.034Z,19.30
2023-02-09T15:47:27.460Z,20.00
2023-02-09T15:49:55.742Z,21.30
2023-02-09T15:52:24.406Z,20.80
2023-02-09T15:54:53.518Z,21.90
2023-02-09T15:57:25.315Z,21.20
2023-02-09T15:59:53.555Z,18.10
2023-02-09T16:02:22.564Z,19.20
2023-02-09T16:04:50.933Z,26.70
2023-02-09T16:07:25.385Z,30.60
2023-02-09T16:09:53.951Z,33.10
2023-02-09T16:12:22.472Z,33.00
2023-02-09T16:14:53.075Z,28.80
2023-02-09T16:17:21.631Z,29.20
2023-02-09T16:19:49.701Z,31.20
2023-02-09T16:22:22.790Z,27.90
2023-02-09T16:24:51.476Z,30.50
2023-02-09T16:27:25.386Z,36.90
2023-02-09T16:29:54.792Z,33.10
2023-02-09T16:32:24.688Z,28.90
2023-02-09T16:34:52.883Z,28.60
2023-02-09T16:37:32.119Z,30.00
2023-02-09T16:40:01.825Z,38.20
2023-02-09T16:42:30.001Z,36.20
2023-02-09T16:44:58.488Z,40.60
2023-02-09T16:47:28.506Z,41.40
2023-02-09T16:49:59.259Z,40.60
2023-02-09T16:52:30.431Z,37.90
2023-02-09T16:55:01.137Z,34.90
2023-02-09T16:57:29.504Z,30.70
2023-02-09T16:59:57.920Z,28.80
2023-02-09T17:02:40.952Z,27.80
2023-02-09T17:05:44.084Z,36.20
2023-02-09T17:08:16.362Z,35.70
2023-02-09T17:10:46.396Z,35.20
2023-02-09T17:13:17.622Z,34.80
2023-02-09T17:15:52.007Z,40.30
2023-02-09T17:18:29.639Z,42.10
2023-02-09T17:23:29.979Z,56.50
2023-02-09T17:25:58.872Z,66.60
2023-02-09T17:28:28.229Z,71.70
2023-02-09T17:31:02.291Z,72.90
2023-02-09T17:33:33.616Z,64.50
2023-02-09T17:38:52.353Z,60.50
2023-02-09T17:41:24.577Z,60.70
2023-02-09T17:43:53.775Z,71.30
2023-02-09T17:46:22.914Z,82.90
2023-02-09T17:48:51.349Z,85.40
2023-02-09T17:51:23.539Z,85.20
2023-02-09T17:53:51.901Z,106.90
2023-02-09T17:56:20.078Z,112.50
2023-02-09T17:58:48.558Z,118.30
2023-02-09T18:01:28.890Z,116.00
2023-02-09T18:04:00.040Z,204.80
2023-02-09T18:06:36.228Z,149.50
2023-02-09T18:09:07.620Z,134.60
2023-02-09T18:11:45.165Z,129.50
2023-02-09T18:14:17.396Z,123.50
2023-02-09T18:16:47.190Z,120.60
2023-02-09T18:19:18.396Z,103.10
2023-02-09T18:21:54.966Z,99.00
2023-02-09T18:24:25.286Z,110.60
2023-02-09T18:26:53.676Z,120.00
2023-02-09T18:29:23.871Z,109.80
2023-02-09T18:31:52.268Z,105.20
2023-02-09T18:34:20.542Z,118.20
2023-02-09T18:36:49.260Z,109.20
2023-02-09T18:39:17.846Z,107.90
2023-02-09T18:41:51.413Z,100.50
2023-02-09T18:44:28.724Z,102.80
2023-02-09T18:47:00.673Z,103.20
2023-02-09T18:49:29.668Z,102.60
2023-02-09T18:51:59.660Z,105.70
2023-02-09T18:54:29.291Z,89.30
2023-02-09T18:56:57.592Z,81.30
2023-02-09T18:59:32.601Z,78.70
2023-02-09T19:02:01.235Z,80.80
2023-02-09T19:04:29.668Z,83.40
2023-02-09T19:06:58.764Z,113.20
2023-02-09T19:09:27.036Z,97.60
2023-02-09T19:11:55.418Z,94.20
2023-02-09T19:14:39.359Z,107.50
2023-02-09T19:17:14.965Z,103.70
2023-02-09T19:19:44.808Z,122.10
2023-02-09T19:22:21.499Z,148.50
2023-02-09T19:24:52.979Z,151.50
2023-02-09T19:27:21.777Z,155.20
2023-02-09T19:29:56.558Z,156.80
2023-02-09T19:32:26.602Z,153.80
2023-02-09T19:34:54.863Z,154.00
2023-02-09T19:37:23.342Z,150.80
2023-02-09T19:40:04.199Z,177.20
2023-02-09T19:42:33.665Z,192.60
2023-02-09T19:45:02.436Z,175.90
2023-02-09T19:47:30.580Z,175.90
2023-02-09T19:49:58.856Z,166.30
2023-02-09T19:52:28.169Z,163.60
2023-02-09T19:54:57.948Z,220.70
2023-02-09T19:57:26.977Z,191.90
2023-02-09T19:59:55.654Z,179.20
2023-02-09T20:02:23.956Z,160.20
2023-02-09T20:04:52.798Z,160.80
2023-02-09T20:07:22.120Z,145.80
2023-02-09T20:09:52.486Z,139.70
2023-02-09T20:12:22.194Z,140.90
2023-02-09T20:14:51.014Z,156.20
2023-02-09T20:19:52.476Z,159.30
2023-02-09T20:22:21.711Z,142.50
2023-02-09T20:24:50.117Z,133.50
2023-02-09T20:27:19.294Z,126.20
2023-02-09T20:29:47.668Z,126.90
2023-02-09T20:32:16.153Z,140.70
2023-02-09T20:34:44.285Z,161.70
2023-02-09T20:37:12.804Z,142.00
2023-02-09T20:39:40.879Z,133.90
2023-02-09T20:42:28.097Z,119.30
2023-02-09T20:45:15.121Z,116.90
2023-02-09T20:47:43.706Z,122.80
2023-02-09T20:50:13.925Z,116.70
2023-02-09T20:52:42.543Z,122.20
2023-02-09T20:55:10.611Z,124.90
2023-02-09T20:57:38.958Z,127.40
2023-02-09T21:00:09.753Z,122.50
2023-02-09T21:02:38.694Z,131.70
2023-02-09T21:05:07.574Z,145.00
2023-02-09T21:07:36.176Z,133.60
2023-02-09T21:10:04.499Z,127.70
2023-02-09T21:12:32.919Z,132.10
2023-02-09T21:15:01.911Z,123.10
2023-02-09T21:17:30.189Z,124.70
2023-02-09T21:19:58.564Z,120.00
2023-02-09T21:22:26.949Z,123.10
2023-02-09T21:24:55.125Z,115.40
2023-02-09T21:27:26.182Z,122.00
2023-02-09T21:29:54.743Z,119.60
2023-02-09T21:32:23.033Z,122.20
2023-02-09T21:34:51.408Z,114.80
2023-02-09T21:37:19.782Z,109.80
2023-02-09T21:39:48.160Z,112.50
2023-02-09T21:42:28.932Z,121.70
2023-02-09T21:44:58.691Z,118.70
2023-02-09T21:47:33.361Z,116.20
2023-02-09T21:50:02.047Z,118.70
2023-02-09T21:52:31.657Z,124.90
2023-02-09T21:55:00.799Z,121.50
2023-02-09T21:57:29.750Z,122.90
2023-02-09T21:59:59.162Z,126.10
2023-02-09T22:02:27.645Z,124.60
2023-02-09T22:04:56.212Z,129.40
2023-02-09T22:07:24.592Z,131.50
2023-02-09T22:09:52.869Z,127.70
2023-02-09T22:12:21.245Z,136.90
2023-02-09T22:14:49.731Z,140.50
2023-02-09T22:17:18.105Z,140.80
2023-02-09T22:19:46.380Z,132.00
2023-02-09T22:22:14.560Z,144.20
2023-02-09T22:24:43.036Z,138.50
2023-02-09T22:27:11.213Z,169.70
2023-02-09T22:29:39.606Z,149.10
2023-02-09T22:32:08.072Z,150.60
2023-02-09T22:34:36.656Z,192.10
2023-02-09T22:37:04.978Z,160.80
2023-02-09T22:39:33.312Z,156.30
2023-02-09T22:42:01.690Z,150.20
2023-02-09T22:44:30.708Z,154.60
2023-02-09T22:46:58.859Z,161.60
2023-02-09T22:49:28.270Z,167.90
2023-02-09T22:51:56.371Z,165.40
2023-02-09T22:54:25.055Z,149.10
2023-02-09T22:56:53.507Z,152.00
2023-02-09T22:59:21.788Z,153.30
2023-02-09T23:01:50.165Z,153.30
2023-02-09T23:04:18.703Z,149.00
2023-02-09T23:06:47.544Z,150.90
2023-02-09T23:09:16.842Z,156.20
2023-02-09T23:11:45.331Z,156.40
2023-02-09T23:14:13.812Z,159.30
2023-02-09T23:16:44.858Z,150.30
2023-02-09T23:19:16.739Z,147.10
2023-02-09T23:21:47.918Z,153.00
2023-02-09T23:24:18.391Z,153.20
2023-02-09T23:26:46.668Z,146.90
2023-02-09T23:29:16.474Z,157.00
2023-02-09T23:31:46.119Z,159.50
2023-02-09T23:34:17.649Z,150.20
2023-02-09T23:36:46.623Z,153.40
2023-02-09T23:39:18.362Z,163.60
2023-02-09T23:41:47.396Z,177.20
2023-02-09T23:44:15.962Z,179.60
2023-02-09T23:46:44.986Z,156.10
2023-02-09T23:49:13.335Z,153.90
2023-02-09T23:51:42.028Z,151.60
2023-02-09T23:54:11.054Z,150.20
2023-02-09T23:56:39.318Z,145.40
2023-02-09T23:59:13.141Z,145.00
